This is the latest recevied weather packets stored in our database for station/object KC1IUC-15. If no packets are shown the sender has not sent any weather packets the latest 10 day(s).
| Time | Temp. | Humidity | Pressure | Rain* | Wind** | Luminosity | Snow |
|---|---|---|---|---|---|---|---|
| 1778181304 | 16.67° C | 30% | 1007.5 hPa | 0 mm | - | 613 W/m² | - |
| 1778181003 | 17.22° C | 29% | 1007.9 hPa | 0 mm | - | 614 W/m² | - |
| 1778180704 | 16.67° C | 30% | 1007.5 hPa | 0 mm | - | 633 W/m² | - |
| 1778180403 | 17.22° C | 29% | 1007.9 hPa | 0 mm | - | 650 W/m² | - |
| 1778180103 | 17.22° C | 29% | 1007.9 hPa | 0 mm | - | 640 W/m² | - |
| 1778179804 | 16.11° C | 33% | 1007.9 hPa | 0 mm | - | 644 W/m² | - |
| 1778179503 | 16.11° C | 31% | 1007.9 hPa | 0 mm | - | 677 W/m² | - |
| 1778179203 | 17.22° C | 29% | 1007.9 hPa | 0 mm | - | 161 W/m² | - |
| 1778178903 | 17.22° C | 31% | 1007.9 hPa | 0 mm | - | 679 W/m² | - |
| 1778178603 | 17.22° C | 29% | 1008.2 hPa | 0 mm | - | 687 W/m² | - |
| 1778178304 | 16.67° C | 30% | 1007.9 hPa | 0 mm | - | 680 W/m² | - |
| 1778178004 | 16.67° C | 29% | 1008.2 hPa | 0 mm | - | 694 W/m² | - |
| 1778177703 | 16.67° C | 29% | 1008.2 hPa | 0 mm | - | 701 W/m² | - |
| 1778177404 | 16.67° C | 29% | 1008.2 hPa | 0 mm | - | 707 W/m² | - |
| 1778177103 | 17.22° C | 29% | 1008.2 hPa | 0 mm | - | 705 W/m² | - |
| 1778176803 | 16.67° C | 30% | 1008.2 hPa | 0 mm | - | 710 W/m² | - |
| 1778176503 | 16.67° C | 30% | 1008.2 hPa | 0 mm | - | 716 W/m² | - |
| 1778176204 | 17.22° C | 30% | 1008.6 hPa | 0 mm | - | 718 W/m² | - |
| 1778175903 | 16.67° C | 31% | 1008.9 hPa | 0 mm | - | 722 W/m² | - |
| 1778175603 | 16.11° C | 31% | 1008.6 hPa | 0 mm | - | 723 W/m² | - |
| 1778175303 | 16.67° C | 30% | 1008.6 hPa | 0 mm | - | 726 W/m² | - |
| 1778175003 | 16.67° C | 30% | 1008.9 hPa | 0 mm | - | 732 W/m² | - |
| 1778174703 | 16.11° C | 29% | 1008.9 hPa | 0 mm | - | 713 W/m² | - |
| 1778174403 | 16.11° C | 30% | 1009.3 hPa | 0 mm | - | 731 W/m² | - |
| 1778174104 | 15.56° C | 30% | 1009.3 hPa | 0 mm | - | 729 W/m² | - |
* Rain latest hour (hover to see other rain measurements)
** Current wind speed in m/s (hover to see current wind gust speed)